createdAt,value
2022-11-29T00:01:25.592Z,25.70
2022-11-29T00:03:53.674Z,27.63
2022-11-29T00:06:22.939Z,27.55
2022-11-29T00:08:50.501Z,26.48
2022-11-29T00:11:21.248Z,23.58
2022-11-29T00:13:48.286Z,26.02
2022-11-29T00:16:15.208Z,26.20
2022-11-29T00:18:43.802Z,23.33
2022-11-29T00:21:10.623Z,24.20
2022-11-29T00:23:37.670Z,24.77
2022-11-29T00:26:06.111Z,29.13
2022-11-29T00:28:34.297Z,25.80
2022-11-29T00:31:01.844Z,26.92
2022-11-29T00:33:29.426Z,28.58
2022-11-29T00:36:00.888Z,25.27
2022-11-29T00:38:28.110Z,27.88
2022-11-29T00:40:55.013Z,29.00
2022-11-29T00:43:24.085Z,26.73
2022-11-29T00:45:51.059Z,27.48
2022-11-29T00:48:18.932Z,23.65
2022-11-29T00:50:46.170Z,23.52
2022-11-29T00:53:17.507Z,25.20
2022-11-29T00:55:48.050Z,25.10
2022-11-29T00:58:15.222Z,27.25
2022-11-29T01:00:42.302Z,29.85
2022-11-29T01:03:10.135Z,25.73
2022-11-29T01:05:37.489Z,27.10
2022-11-29T01:08:05.264Z,24.15
2022-11-29T01:10:34.475Z,28.02
2022-11-29T01:13:01.761Z,29.88
2022-11-29T01:15:29.068Z,29.70
2022-11-29T01:17:55.918Z,27.45
2022-11-29T01:20:23.194Z,29.83
2022-11-29T01:22:50.248Z,29.60
2022-11-29T01:25:17.401Z,26.02
2022-11-29T01:27:46.703Z,25.63
2022-11-29T01:30:16.052Z,27.33
2022-11-29T01:32:43.264Z,25.23
2022-11-29T01:35:10.210Z,28.65
2022-11-29T01:37:37.273Z,28.88
2022-11-29T01:40:06.056Z,28.23
2022-11-29T01:42:33.217Z,26.42
2022-11-29T01:45:20.235Z,25.80
2022-11-29T01:47:51.102Z,30.45
2022-11-29T01:50:19.910Z,30.42
2022-11-29T01:52:48.781Z,28.33
2022-11-29T01:55:18.335Z,28.83
2022-11-29T01:57:45.654Z,25.25
2022-11-29T02:00:18.632Z,28.23
2022-11-29T02:02:53.638Z,25.27
2022-11-29T02:05:22.558Z,34.25
2022-11-29T02:07:54.171Z,29.88
2022-11-29T02:10:30.624Z,28.33
2022-11-29T02:13:09.093Z,26.58
2022-11-29T02:15:49.311Z,27.83
2022-11-29T02:18:32.561Z,30.05
2022-11-29T02:21:36.506Z,29.20
2022-11-29T02:24:31.356Z,23.25
2022-11-29T02:27:30.739Z,24.58
2022-11-29T02:30:38.697Z,26.33
2022-11-29T02:33:54.944Z,27.45
2022-11-29T02:36:59.466Z,23.30
2022-11-29T02:40:16.682Z,24.63
2022-11-29T02:43:14.951Z,26.42
2022-11-29T02:46:02.285Z,27.00
2022-11-29T02:48:56.358Z,27.80
2022-11-29T02:51:41.093Z,24.73
2022-11-29T02:54:21.172Z,27.00
2022-11-29T02:56:56.590Z,29.13
2022-11-29T02:59:42.607Z,30.88
2022-11-29T03:02:32.432Z,26.25
2022-11-29T03:05:12.763Z,31.73
2022-11-29T03:07:51.782Z,30.25
2022-11-29T03:10:35.189Z,27.20
2022-11-29T03:13:10.286Z,27.00
2022-11-29T03:15:51.344Z,31.70
2022-11-29T03:18:36.684Z,30.98
2022-11-29T03:21:19.750Z,30.92
2022-11-29T03:23:50.835Z,29.10
2022-11-29T03:26:26.700Z,27.80
2022-11-29T03:29:02.927Z,28.90
2022-11-29T03:31:35.424Z,28.50
2022-11-29T03:34:19.061Z,28.98
2022-11-29T03:36:58.058Z,36.97
2022-11-29T03:39:41.969Z,28.77
2022-11-29T03:42:26.121Z,26.33
2022-11-29T03:45:03.357Z,30.60
2022-11-29T03:47:38.556Z,26.35
2022-11-29T03:50:11.502Z,29.92
2022-11-29T03:52:50.204Z,31.08
2022-11-29T03:55:33.264Z,27.58
2022-11-29T03:58:20.632Z,31.33
2022-11-29T04:01:25.659Z,31.50
2022-11-29T04:04:27.857Z,32.40
2022-11-29T04:07:12.407Z,32.03
2022-11-29T04:10:15.742Z,28.10
2022-11-29T04:13:44.193Z,29.02
2022-11-29T04:17:05.197Z,32.13
2022-11-29T04:20:20.942Z,28.90
2022-11-29T04:23:31.867Z,28.35
2022-11-29T04:26:44.979Z,28.80
2022-11-29T04:29:30.019Z,29.27
2022-11-29T04:32:46.851Z,31.20
2022-11-29T04:35:41.743Z,30.73
2022-11-29T04:38:56.485Z,28.73
2022-11-29T04:42:08.123Z,24.23
2022-11-29T04:44:59.173Z,25.52
2022-11-29T04:47:57.801Z,36.05
2022-11-29T04:50:46.994Z,29.92
2022-11-29T04:53:33.396Z,32.67
2022-11-29T04:56:15.273Z,30.58
2022-11-29T04:58:54.932Z,32.33
2022-11-29T05:01:35.727Z,31.73
2022-11-29T05:04:15.877Z,29.98
2022-11-29T05:06:56.596Z,29.08
2022-11-29T05:09:37.707Z,30.27
2022-11-29T05:12:17.322Z,37.45
2022-11-29T05:15:14.367Z,29.38
2022-11-29T05:17:56.486Z,27.60
2022-11-29T05:20:38.963Z,32.95
2022-11-29T05:25:55.481Z,30.73
2022-11-29T05:28:32.441Z,30.27
2022-11-29T05:31:21.553Z,36.05
2022-11-29T05:34:14.374Z,30.40
2022-11-29T05:36:56.450Z,29.23
2022-11-29T05:39:49.083Z,29.42
2022-11-29T05:45:12.813Z,24.92
2022-11-29T05:47:52.876Z,27.73
2022-11-29T05:50:28.407Z,31.13
2022-11-29T05:53:21.178Z,27.55
2022-11-29T05:56:02.951Z,28.67
2022-11-29T05:58:42.431Z,26.23
2022-11-29T06:01:21.115Z,29.90
2022-11-29T06:04:02.077Z,27.73
2022-11-29T06:06:40.354Z,31.67
2022-11-29T06:09:19.174Z,32.42
2022-11-29T06:11:53.156Z,32.65
2022-11-29T06:15:06.123Z,30.05
2022-11-29T06:18:02.555Z,34.05
2022-11-29T06:20:54.975Z,29.85
2022-11-29T06:23:52.765Z,23.70
2022-11-29T06:26:43.796Z,31.90
2022-11-29T06:29:33.022Z,30.42
2022-11-29T06:32:13.285Z,27.55
2022-11-29T06:34:52.516Z,26.85
2022-11-29T06:37:27.886Z,33.85
2022-11-29T06:39:58.837Z,34.95
2022-11-29T06:42:25.791Z,29.73
2022-11-29T06:44:53.930Z,28.85
2022-11-29T06:47:28.418Z,28.65
2022-11-29T06:53:08.428Z,32.22
2022-11-29T06:55:45.709Z,25.60
2022-11-29T06:58:35.962Z,31.80
2022-11-29T07:01:19.984Z,27.45
2022-11-29T07:04:15.028Z,28.48
2022-11-29T07:06:42.859Z,34.42
2022-11-29T07:09:16.834Z,32.92
2022-11-29T07:11:46.312Z,31.48
2022-11-29T07:14:14.684Z,33.10
2022-11-29T07:16:57.446Z,33.22
2022-11-29T07:19:41.020Z,29.60
2022-11-29T07:22:29.123Z,30.50
2022-11-29T07:25:10.130Z,31.88
2022-11-29T07:27:47.159Z,29.90
2022-11-29T07:30:20.227Z,30.33
2022-11-29T07:33:01.963Z,31.42
2022-11-29T07:35:41.655Z,28.63
2022-11-29T07:38:19.858Z,29.88
2022-11-29T07:41:00.753Z,27.75
2022-11-29T07:43:42.273Z,30.80
2022-11-29T07:46:09.888Z,31.77
2022-11-29T07:48:36.913Z,30.75
2022-11-29T07:51:04.334Z,27.88
2022-11-29T07:53:31.364Z,35.72
2022-11-29T07:56:00.134Z,30.65
2022-11-29T07:58:27.707Z,37.15
2022-11-29T08:00:54.809Z,30.35
2022-11-29T08:03:21.907Z,30.10
2022-11-29T08:05:49.072Z,34.63
2022-11-29T08:08:16.634Z,28.75
2022-11-29T08:10:46.852Z,34.65
2022-11-29T08:13:19.848Z,33.90
2022-11-29T08:15:48.636Z,32.88
2022-11-29T08:18:16.942Z,36.42
2022-11-29T08:20:44.502Z,31.75
2022-11-29T08:23:13.785Z,30.13
2022-11-29T08:25:41.265Z,33.65
2022-11-29T08:28:12.107Z,31.88
2022-11-29T08:30:40.789Z,34.20
2022-11-29T08:33:07.833Z,25.65
2022-11-29T08:35:35.514Z,33.72
2022-11-29T08:38:02.783Z,32.28
2022-11-29T08:40:29.732Z,39.38
2022-11-29T08:42:57.901Z,34.00
2022-11-29T08:45:25.210Z,32.15
2022-11-29T08:47:53.946Z,33.80
2022-11-29T08:50:21.201Z,31.30
2022-11-29T08:52:50.094Z,33.00
2022-11-29T08:55:17.970Z,29.42
2022-11-29T08:57:44.917Z,32.95
2022-11-29T09:00:14.132Z,33.08
2022-11-29T09:02:41.343Z,24.17
2022-11-29T09:05:11.823Z,32.13
2022-11-29T09:07:39.533Z,30.52
2022-11-29T09:10:09.182Z,32.55
2022-11-29T09:12:37.480Z,30.05
2022-11-29T09:15:06.870Z,36.50
2022-11-29T09:17:33.824Z,33.30
2022-11-29T09:20:00.877Z,33.38
2022-11-29T09:22:29.328Z,34.25
2022-11-29T09:24:56.440Z,32.25
2022-11-29T09:27:23.542Z,34.05
2022-11-29T09:29:50.516Z,32.70
2022-11-29T09:32:19.044Z,31.58
2022-11-29T09:34:49.864Z,32.15
2022-11-29T09:37:16.741Z,34.55
2022-11-29T09:39:45.199Z,35.08
2022-11-29T09:42:35.279Z,35.65
2022-11-29T09:45:07.847Z,35.78
2022-11-29T09:48:01.880Z,37.28
2022-11-29T09:50:34.588Z,30.42
2022-11-29T09:53:21.408Z,32.20
2022-11-29T09:56:04.615Z,32.97
2022-11-29T09:58:41.185Z,32.28
2022-11-29T10:01:17.406Z,34.10
2022-11-29T10:03:50.136Z,36.50
2022-11-29T10:06:28.412Z,33.00
2022-11-29T10:09:04.208Z,30.30
2022-11-29T10:11:42.959Z,36.60
2022-11-29T10:14:17.371Z,35.20
2022-11-29T10:16:51.946Z,34.47
2022-11-29T10:19:27.831Z,34.67
2022-11-29T10:22:03.291Z,30.10
2022-11-29T10:24:33.387Z,38.65
2022-11-29T10:27:02.633Z,34.78
2022-11-29T10:29:29.643Z,34.95
2022-11-29T10:31:57.822Z,34.28
2022-11-29T10:34:30.817Z,41.15
2022-11-29T10:36:59.693Z,36.17
2022-11-29T10:39:35.936Z,34.17
2022-11-29T10:42:06.805Z,36.22
2022-11-29T10:44:34.849Z,37.15
2022-11-29T10:47:10.453Z,35.35
2022-11-29T10:49:38.387Z,37.58
2022-11-29T10:52:10.795Z,36.75
2022-11-29T10:54:42.306Z,36.95
2022-11-29T10:57:16.930Z,34.45
2022-11-29T11:00:00.892Z,36.22
2022-11-29T11:02:28.584Z,33.47
2022-11-29T11:04:56.674Z,31.15
2022-11-29T11:07:28.832Z,33.38
2022-11-29T11:09:58.531Z,41.38
2022-11-29T11:12:30.511Z,35.38
2022-11-29T11:15:26.816Z,32.70
2022-11-29T11:18:00.036Z,34.33
2022-11-29T11:20:31.663Z,35.83
2022-11-29T11:23:02.527Z,35.58
2022-11-29T11:25:33.475Z,35.78
2022-11-29T11:28:18.926Z,35.95
2022-11-29T11:30:52.636Z,36.72
2022-11-29T11:33:28.591Z,36.90
2022-11-29T11:36:10.453Z,39.55
2022-11-29T11:38:40.956Z,38.45
2022-11-29T11:41:21.162Z,48.53
2022-11-29T11:43:58.261Z,38.63
2022-11-29T11:46:48.961Z,37.38
2022-11-29T11:49:35.526Z,38.33
2022-11-29T11:52:06.578Z,36.72
2022-11-29T11:54:36.804Z,33.72
2022-11-29T11:57:04.129Z,35.08
2022-11-29T11:59:32.653Z,39.53
2022-11-29T12:01:59.690Z,36.00
2022-11-29T12:05:01.643Z,45.28
2022-11-29T12:08:06.920Z,42.53
2022-11-29T12:10:32.702Z,38.15
2022-11-29T12:13:01.802Z,37.17
2022-11-29T12:15:36.850Z,40.65
2022-11-29T12:18:11.564Z,37.35
2022-11-29T12:20:46.442Z,36.58
2022-11-29T12:23:31.130Z,39.38
2022-11-29T12:26:06.020Z,40.80
2022-11-29T12:28:38.541Z,42.50
2022-11-29T12:31:25.501Z,42.15
2022-11-29T12:34:03.057Z,42.60
2022-11-29T12:36:41.478Z,39.80
2022-11-29T12:39:33.688Z,42.15
2022-11-29T12:42:14.885Z,37.38
2022-11-29T12:44:55.519Z,43.58
2022-11-29T12:47:39.605Z,42.92
2022-11-29T12:50:34.179Z,38.25
2022-11-29T12:54:02.366Z,47.38
2022-11-29T12:56:37.909Z,35.03
2022-11-29T12:59:25.845Z,39.15
2022-11-29T13:02:15.844Z,39.35
2022-11-29T13:05:01.247Z,35.72
2022-11-29T13:07:39.896Z,39.90
2022-11-29T13:10:27.151Z,39.63
2022-11-29T13:12:58.459Z,46.00
2022-11-29T13:15:41.280Z,40.08
2022-11-29T13:18:22.588Z,37.63
2022-11-29T13:20:59.214Z,40.50
2022-11-29T13:23:45.677Z,42.15
2022-11-29T13:26:29.258Z,42.47
2022-11-29T13:28:58.843Z,45.00
2022-11-29T13:31:26.125Z,44.92
2022-11-29T13:34:01.643Z,41.17
2022-11-29T13:36:47.348Z,53.45
2022-11-29T13:39:32.547Z,39.97
2022-11-29T13:42:10.474Z,40.70
2022-11-29T13:44:46.713Z,33.45
2022-11-29T13:47:16.662Z,41.33
2022-11-29T13:49:56.856Z,42.85
2022-11-29T13:52:38.631Z,37.92
2022-11-29T13:55:23.263Z,37.13
2022-11-29T13:58:15.312Z,41.40
2022-11-29T14:00:51.184Z,47.83
2022-11-29T14:03:32.494Z,46.38
2022-11-29T14:06:14.548Z,62.30
2022-11-29T14:09:30.566Z,43.63
2022-11-29T14:12:17.799Z,39.13
2022-11-29T14:14:53.796Z,45.85
2022-11-29T14:17:48.066Z,46.10
2022-11-29T14:20:57.972Z,42.92
2022-11-29T14:23:38.678Z,40.40
2022-11-29T14:26:30.631Z,39.70
2022-11-29T14:28:59.197Z,55.25
2022-11-29T14:31:55.358Z,42.30
2022-11-29T14:34:53.640Z,48.60
2022-11-29T14:37:47.435Z,44.88
2022-11-29T14:40:33.439Z,43.30
2022-11-29T14:43:15.259Z,40.50
2022-11-29T14:45:43.288Z,46.58
2022-11-29T14:48:27.191Z,41.08
2022-11-29T14:51:09.578Z,41.80
2022-11-29T14:58:16.787Z,41.05
2022-11-29T15:01:34.106Z,43.05
2022-11-29T15:04:07.323Z,42.28
2022-11-29T15:06:43.284Z,44.72
2022-11-29T15:09:21.476Z,43.08
2022-11-29T15:11:52.775Z,44.95
2022-11-29T15:14:34.782Z,40.20
2022-11-29T15:17:27.128Z,40.60
2022-11-29T15:20:46.168Z,41.17
2022-11-29T15:23:16.777Z,41.60
2022-11-29T15:25:49.041Z,42.75
2022-11-29T15:31:02.647Z,45.00
2022-11-29T15:33:30.031Z,46.07
2022-11-29T15:36:06.380Z,42.55
2022-11-29T15:38:44.126Z,45.83
2022-11-29T15:41:27.700Z,43.90
2022-11-29T15:43:59.170Z,41.72
2022-11-29T15:46:31.957Z,39.67
2022-11-29T15:49:18.629Z,39.13
2022-11-29T15:51:49.088Z,41.33
2022-11-29T15:54:29.446Z,42.45
2022-11-29T15:57:01.625Z,46.55
2022-11-29T15:59:36.278Z,46.47
2022-11-29T16:02:17.276Z,38.97
2022-11-29T16:04:47.317Z,44.53
2022-11-29T16:07:16.028Z,39.10
2022-11-29T16:09:50.514Z,45.15
2022-11-29T16:12:18.776Z,40.92
2022-11-29T16:14:52.870Z,45.22
2022-11-29T16:17:32.544Z,37.72
2022-11-29T16:20:24.177Z,43.28
2022-11-29T16:23:13.392Z,45.08
2022-11-29T16:26:02.052Z,41.42
2022-11-29T16:28:34.509Z,57.05
2022-11-29T16:33:29.944Z,45.63
2022-11-29T16:36:13.612Z,36.35
2022-11-29T16:38:46.133Z,40.97
2022-11-29T16:41:24.849Z,39.17
2022-11-29T16:43:55.998Z,41.10
2022-11-29T16:46:34.537Z,41.43
2022-11-29T16:49:31.752Z,43.35
2022-11-29T16:51:59.131Z,41.40
2022-11-29T16:54:27.957Z,42.47
2022-11-29T16:56:57.317Z,37.20
2022-11-29T17:02:21.642Z,42.10
2022-11-29T17:05:06.570Z,44.78
2022-11-29T17:07:43.202Z,41.58
2022-11-29T17:10:17.988Z,50.97
2022-11-29T17:12:48.179Z,49.50
2022-11-29T17:15:15.968Z,44.33
2022-11-29T17:17:46.562Z,43.97
2022-11-29T17:20:16.437Z,38.30
2022-11-29T17:22:43.617Z,47.53
2022-11-29T17:25:11.775Z,45.63
2022-11-29T17:27:41.687Z,40.20
2022-11-29T17:30:10.187Z,45.97
2022-11-29T17:32:37.848Z,48.08
2022-11-29T17:35:05.728Z,40.53
2022-11-29T17:37:35.740Z,45.53
2022-11-29T17:40:02.834Z,45.30
2022-11-29T17:42:29.674Z,45.63
2022-11-29T17:44:57.203Z,41.33
2022-11-29T17:47:24.187Z,45.92
2022-11-29T17:49:51.428Z,45.20
2022-11-29T17:52:18.440Z,42.58
2022-11-29T17:54:46.765Z,61.45
2022-11-29T17:57:13.695Z,100.50
2022-11-29T17:59:40.970Z,95.57
2022-11-29T18:02:09.892Z,56.67
2022-11-29T18:04:37.039Z,48.92
2022-11-29T18:07:04.296Z,48.35
2022-11-29T18:09:33.567Z,44.45
2022-11-29T18:12:03.465Z,47.17
2022-11-29T18:14:33.045Z,46.40
2022-11-29T18:17:00.831Z,43.00
2022-11-29T18:19:27.853Z,47.35
2022-11-29T18:21:54.978Z,44.50
2022-11-29T18:24:22.086Z,47.35
2022-11-29T18:26:48.892Z,43.13
2022-11-29T18:29:17.465Z,43.90
2022-11-29T18:31:47.099Z,49.17
2022-11-29T18:34:15.159Z,45.80
2022-11-29T18:36:46.302Z,50.92
2022-11-29T18:39:18.569Z,49.28
2022-11-29T18:44:41.467Z,48.25
2022-11-29T18:47:18.872Z,42.58
2022-11-29T18:49:46.081Z,54.65
2022-11-29T18:52:12.931Z,49.50
2022-11-29T18:54:40.494Z,42.50
2022-11-29T18:57:07.346Z,50.95
2022-11-29T18:59:38.339Z,46.58
2022-11-29T19:02:06.940Z,52.20
2022-11-29T19:04:35.517Z,54.17
2022-11-29T19:07:02.727Z,49.10
2022-11-29T19:09:29.992Z,43.75
2022-11-29T19:11:56.827Z,48.08
2022-11-29T19:14:23.683Z,55.42
2022-11-29T19:16:51.050Z,47.58
2022-11-29T19:19:19.630Z,49.28
2022-11-29T19:21:47.395Z,47.33
2022-11-29T19:24:16.128Z,47.10
2022-11-29T19:26:46.319Z,49.03
2022-11-29T19:29:14.313Z,46.25
2022-11-29T19:31:41.958Z,42.03
2022-11-29T19:34:09.325Z,48.45
2022-11-29T19:36:40.765Z,47.72
2022-11-29T19:39:10.809Z,49.85
2022-11-29T19:41:38.074Z,49.58
2022-11-29T19:44:07.766Z,51.75
2022-11-29T19:46:38.472Z,46.10
2022-11-29T19:49:08.334Z,47.00
2022-11-29T19:54:28.833Z,46.65
2022-11-29T19:56:55.802Z,50.45
2022-11-29T19:59:23.036Z,48.13
2022-11-29T20:01:50.396Z,43.58
2022-11-29T20:04:17.441Z,43.78
2022-11-29T20:06:45.641Z,46.35
2022-11-29T20:09:14.037Z,50.08
2022-11-29T20:11:43.025Z,47.15
2022-11-29T20:14:12.516Z,45.40
2022-11-29T20:16:39.474Z,48.75
2022-11-29T20:19:12.657Z,47.80
2022-11-29T20:21:43.629Z,43.30
2022-11-29T20:24:12.598Z,48.55
2022-11-29T20:26:43.873Z,37.97
2022-11-29T20:29:12.844Z,48.83
2022-11-29T20:31:47.771Z,46.70
2022-11-29T20:34:17.816Z,44.05
2022-11-29T20:37:23.485Z,42.53
2022-11-29T20:39:57.064Z,41.67
2022-11-29T20:42:58.082Z,40.65
2022-11-29T20:45:26.278Z,37.97
2022-11-29T20:47:58.308Z,41.58
2022-11-29T20:50:28.853Z,39.67
2022-11-29T20:53:20.484Z,42.05
2022-11-29T20:55:48.752Z,40.63
2022-11-29T20:58:17.738Z,41.33
2022-11-29T21:00:44.808Z,36.47
2022-11-29T21:03:13.567Z,45.33
2022-11-29T21:05:40.642Z,44.50
2022-11-29T21:08:07.588Z,42.95
2022-11-29T21:10:34.659Z,47.20
2022-11-29T21:13:02.416Z,44.72
2022-11-29T21:15:32.233Z,41.70
2022-11-29T21:18:00.211Z,40.33
2022-11-29T21:20:28.062Z,43.55
2022-11-29T21:23:05.472Z,40.33
2022-11-29T21:25:44.690Z,43.72
2022-11-29T21:28:15.027Z,39.90
2022-11-29T21:30:44.631Z,40.78
2022-11-29T21:33:12.643Z,45.22
2022-11-29T21:35:40.111Z,46.78
2022-11-29T21:38:18.886Z,43.85
2022-11-29T21:40:47.503Z,44.15
2022-11-29T21:43:14.527Z,43.50
2022-11-29T21:45:43.144Z,47.60
2022-11-29T21:48:10.271Z,44.65
2022-11-29T21:50:37.132Z,48.33
2022-11-29T21:53:04.678Z,46.83
2022-11-29T21:55:32.383Z,42.28
2022-11-29T21:57:59.719Z,43.58
2022-11-29T22:00:26.675Z,43.92
2022-11-29T22:02:56.403Z,43.17
2022-11-29T22:05:23.349Z,51.60
2022-11-29T22:07:50.245Z,47.03
2022-11-29T22:10:17.404Z,48.40
2022-11-29T22:12:51.987Z,51.20
2022-11-29T22:15:24.537Z,41.95
2022-11-29T22:17:52.838Z,48.92
2022-11-29T22:20:21.845Z,45.60
2022-11-29T22:22:51.762Z,44.90
2022-11-29T22:25:21.678Z,41.83
2022-11-29T22:27:49.487Z,47.85
2022-11-29T22:30:17.110Z,38.63
2022-11-29T22:32:43.920Z,43.60
2022-11-29T22:35:10.718Z,44.33
2022-11-29T22:37:38.983Z,48.15
2022-11-29T22:40:07.875Z,48.50
2022-11-29T22:42:34.840Z,42.83
2022-11-29T22:45:02.800Z,46.63
2022-11-29T22:47:32.054Z,50.17
2022-11-29T22:49:59.267Z,45.70
2022-11-29T22:52:27.359Z,53.33
2022-11-29T22:54:59.923Z,51.15
2022-11-29T22:57:29.909Z,51.38
2022-11-29T22:59:56.690Z,52.50
2022-11-29T23:02:23.785Z,50.45
2022-11-29T23:04:50.617Z,51.50
2022-11-29T23:07:17.571Z,45.72
2022-11-29T23:09:44.687Z,51.03
2022-11-29T23:12:13.266Z,45.25
2022-11-29T23:14:40.161Z,53.75
2022-11-29T23:17:07.013Z,48.92
2022-11-29T23:19:34.028Z,47.88
2022-11-29T23:22:00.827Z,41.55
2022-11-29T23:24:28.763Z,53.42
2022-11-29T23:26:56.460Z,49.53
2022-11-29T23:29:24.705Z,51.25
2022-11-29T23:31:51.703Z,47.25
2022-11-29T23:34:18.713Z,50.85
2022-11-29T23:36:51.187Z,45.13
2022-11-29T23:39:20.222Z,49.40
2022-11-29T23:41:47.370Z,51.20
2022-11-29T23:44:14.183Z,51.83
2022-11-29T23:46:42.674Z,51.92
2022-11-29T23:49:09.738Z,51.08
2022-11-29T23:54:28.299Z,52.25
2022-11-29T23:56:55.207Z,51.65
2022-11-29T23:59:22.189Z,53.70
